^^
Grace C. Lehan Memorial Weather Station Historical Data
Daily Summary for July 23, 2021 Units:  Metric    English   Both
Daily Weekly Monthly Yearly
  High: Low: Average:
Temperature: 5.2 °C -1.4 °C 1.2 °C
Dew Point: -2.9 °C -8 °C -5.7 °C
Humidity: 81% 39% 61%
Wind Speed: 19.3km/h 0km/h 5.3km/h
Wind Gust: 41.8km/h - -
Wind- - NW
Pressure: 1019.2 hPa 1010.7 hPa -
Precipitation: 0 mm    
 
 
Tabular Data for July 23, 2021
Time Temperature Dew Point Pressure Wind Wind Speed Wind Gust Humidity Rainfall Rate (Hourly) solar
00:04 1.4 °C -3.8 °C 1011.1 hPa NW 2.3 km/h 9.7 km/h 68% 0 mm 0 W/m2
00:09 1.3 °C -3.9 °C 1011.1 hPa NNW 1.4 km/h 9.7 km/h 67.8% 0 mm 0 W/m2
00:14 1.3 °C -3.9 °C 1011.1 hPa NW 2.7 km/h 9.7 km/h 68% 0 mm 0 W/m2
00:19 1.3 °C -4 °C 1011.1 hPa NW 1.4 km/h 9.7 km/h 68% 0 mm 0 W/m2
00:24 1.2 °C -4.1 °C 1011.1 hPa NW 4.2 km/h 14.5 km/h 68% 0 mm 0 W/m2
00:29 1.2 °C -4.1 °C 1011.1 hPa NW 2.1 km/h 14.5 km/h 68% 0 mm 0 W/m2
00:34 1.2 °C -4.1 °C 1011.1 hPa NW 5.6 km/h 14.5 km/h 68% 0 mm 0 W/m2
00:39 1.2 °C -4 °C 1011.4 hPa NW 3.5 km/h 17.7 km/h 68% 0 mm 0 W/m2
00:44 1.3 °C -4.1 °C 1011.4 hPa NW 4.8 km/h 17.7 km/h 67.5% 0 mm 0 W/m2
00:49 1.3 °C -4.1 °C 1011.4 hPa NW 4.2 km/h 17.7 km/h 67% 0 mm 0 W/m2
00:54 1.3 °C -4.1 °C 1011.4 hPa NW 2.9 km/h 17.7 km/h 67% 0 mm 0 W/m2
00:59 1.3 °C -4.1 °C 1011.1 hPa NW 4.2 km/h 17.7 km/h 67% 0 mm 0 W/m2
01:04 1.3 °C -4.1 °C 1011.4 hPa WNW 4.8 km/h 17.7 km/h 67% 0 mm 0 W/m2
01:09 1.3 °C -4.1 °C 1011.1 hPa NW 3.4 km/h 16.1 km/h 67% 0 mm 0 W/m2
01:14 1.3 °C -4.1 °C 1011.1 hPa WNW 4.5 km/h 16.1 km/h 67% 0 mm 0 W/m2
01:19 1.3 °C -4.1 °C 1011.1 hPa WNW 3.5 km/h 16.1 km/h 67.3% 0 mm 0 W/m2
01:24 1.3 °C -4 °C 1011.1 hPa NW 4.2 km/h 17.7 km/h 68% 0 mm 0 W/m2
01:29 1.2 °C -4 °C 1011.1 hPa NW 6 km/h 17.7 km/h 68% 0 mm 0 W/m2
01:34 1.2 °C -4 °C 1011.1 hPa NW 6 km/h 17.7 km/h 68% 0 mm 0 W/m2
01:39 1.2 °C -4.1 °C 1010.7 hPa WNW 2.6 km/h 17.7 km/h 68% 0 mm 0 W/m2
01:44 1.2 °C -4.1 °C 1010.7 hPa NW 2.6 km/h 17.7 km/h 68% 0 mm 0 W/m2
01:49 1.1 °C -4.1 °C 1011.1 hPa WNW 2.4 km/h 17.7 km/h 68.2% 0 mm 0 W/m2
01:54 1 °C -4 °C 1011.1 hPa NW 3.2 km/h 17.7 km/h 69% 0 mm 0 W/m2
01:59 1 °C -4.1 °C 1011.1 hPa NW 2.3 km/h 17.7 km/h 69% 0 mm 0 W/m2
02:04 0.9 °C -4.1 °C 1011.4 hPa NW 2.3 km/h 17.7 km/h 69% 0 mm 0 W/m2
02:09 0.9 °C -4.1 °C 1011.4 hPa NW 0.3 km/h 9.7 km/h 69.1% 0 mm 0 W/m2
02:14 0.9 °C -4 °C 1011.4 hPa NW 1.6 km/h 11.3 km/h 70% 0 mm 0 W/m2
02:19 0.8 °C -4.1 °C 1011.4 hPa NW 0.3 km/h 11.3 km/h 70% 0 mm 0 W/m2
02:24 0.8 °C -4.1 °C 1011.4 hPa NW 0.6 km/h 11.3 km/h 70% 0 mm 0 W/m2
02:29 0.7 °C -4.1 °C 1011.4 hPa Calm   11.3 km/h 70% 0 mm 0 W/m2
02:34 0.7 °C -4.2 °C 1011.4 hPa Calm   11.3 km/h 70% 0 mm 0 W/m2
02:39 0.6 °C -4.2 °C 1011.4 hPa Calm     70.2% 0 mm 0 W/m2
02:44 0.5 °C -4.2 °C 1011.4 hPa Calm     70.8% 0 mm 0 W/m2
02:49 0.4 °C -4.2 °C 1011.4 hPa Calm     71% 0 mm 0 W/m2
02:54 0.3 °C -4.1 °C 1011.4 hPa Calm     72% 0 mm 0 W/m2
02:59 0.2 °C -4.1 °C 1011.4 hPa Calm     72.6% 0 mm 0 W/m2
03:04 0.2 °C -4.1 °C 1011.4 hPa Calm     73% 0 mm 0 W/m2
03:09 0.1 °C -4.2 °C 1011.7 hPa Calm     73% 0 mm 0 W/m2
03:14 0 °C -4.1 °C 1011.7 hPa Calm     74% 0 mm 0 W/m2
03:19 -0.1 °C -4.2 °C 1011.7 hPa Calm     74.1% 0 mm 0 W/m2
03:24 -0.3 °C -4.2 °C 1011.4 hPa Calm     75% 0 mm 0 W/m2
03:29 -0.4 °C -4.3 °C 1011.7 hPa Calm     75% 0 mm 0 W/m2
03:34 -0.6 °C -4.3 °C 1011.7 hPa Calm     75.4% 0 mm 0 W/m2
03:39 -0.6 °C -4.3 °C 1011.7 hPa Calm     76% 0 mm 0 W/m2
03:44 -0.7 °C -4.3 °C 1011.7 hPa Calm     76.1% 0 mm 0 W/m2
03:49 -0.7 °C -4.2 °C 1011.7 hPa Calm     77% 0 mm 0 W/m2
03:54 -0.8 °C -4.3 °C 1011.7 hPa Calm     77% 0 mm 0 W/m2
03:59 -0.8 °C -4.3 °C 1011.7 hPa Calm     77.5% 0 mm 0 W/m2
04:00 -0.9 °C -4.2 °C 1011.4 hPa Calm     78% 0 mm 0 W/m2
04:09 -1 °C -4.2 °C 1011.4 hPa Calm     78.7% 0 mm 0 W/m2
04:14 -1.1 °C -4.2 °C 1011.4 hPa Calm     79% 0 mm 0 W/m2
04:19 -1.1 °C -4.3 °C 1011.4 hPa Calm     79% 0 mm 0 W/m2
04:24 -1.2 °C -4.3 °C 1011.7 hPa Calm     79% 0 mm 0 W/m2
04:29 -1.2 °C -4.3 °C 1011.7 hPa Calm     79.2% 0 mm 0 W/m2
04:34 -1.2 °C -4.2 °C 1011.7 hPa Calm     80% 0 mm 0 W/m2
04:39 -1.2 °C -4.2 °C 1011.7 hPa Calm     80% 0 mm 0 W/m2
04:44 -1.3 °C -4.3 °C 1011.7 hPa NW 0.2 km/h 4.8 km/h 80% 0 mm 0 W/m2
04:49 -1.3 °C -4.3 °C 1011.7 hPa Calm   4.8 km/h 80% 0 mm 0 W/m2
04:54 -1.3 °C -4.3 °C 1011.7 hPa Calm   4.8 km/h 80.3% 0 mm 0 W/m2
04:59 -1.3 °C -4.2 °C 1011.7 hPa Calm   4.8 km/h 81% 0 mm 0 W/m2
05:04 -1.4 °C -4.2 °C 1011.7 hPa Calm   4.8 km/h 81% 0 mm 0 W/m2
05:09 -1.4 °C -4.2 °C 1011.7 hPa NW 0.2 km/h 4.8 km/h 81% 0 mm 0 W/m2
05:14 -1.4 °C -4.3 °C 1011.7 hPa Calm   4.8 km/h 80.7% 0 mm 0 W/m2
05:19 -1.3 °C -4.2 °C 1011.7 hPa Calm   4.8 km/h 81% 0 mm 0 W/m2
05:24 -1.4 °C -4.2 °C 1011.7 hPa Calm   4.8 km/h 81% 0 mm 0 W/m2
05:29 -1.4 °C -4.2 °C 1012.1 hPa NW 0.2 km/h 4.8 km/h 81% 0 mm 0 W/m2
05:34 -1.4 °C -4.2 °C 1012.1 hPa NW 0.2 km/h 4.8 km/h 81% 0 mm 0 W/m2
05:39 -1.4 °C -4.2 °C 1012.1 hPa Calm   3.2 km/h 81% 0 mm 0 W/m2
05:44 -1.4 °C -4.3 °C 1012.1 hPa NW 0.2 km/h 3.2 km/h 80.8% 0 mm 0 W/m2
05:49 -1.4 °C -4.4 °C 1012.1 hPa Calm   3.2 km/h 80% 0 mm 0 W/m2
05:54 -1.4 °C -4.4 °C 1012.1 hPa NW 0.6 km/h 6.4 km/h 80% 0 mm 0 W/m2
05:59 -1.3 °C -4.3 °C 1012.4 hPa NW 0.5 km/h 6.4 km/h 80% 0 mm 0 W/m2
06:04 -1.3 °C -4.3 °C 1012.4 hPa Calm   6.4 km/h 80% 0 mm 0 W/m2
06:09 -1.3 °C -4.3 °C 1012.4 hPa NW 0.6 km/h 6.4 km/h 79.9% 0 mm 0 W/m2
06:14 -1.3 °C -4.4 °C 1012.4 hPa NW 0.3 km/h 6.4 km/h 79.3% 0 mm 0 W/m2
06:19 -1.3 °C -4.4 °C 1012.4 hPa NW 2.1 km/h 8 km/h 79% 0 mm 0 W/m2
06:24 -1.2 °C -4.4 °C 1012.4 hPa NW 1.6 km/h 8 km/h 78.8% 0 mm 0 W/m2
06:29 -1.1 °C -4.5 °C 1012.8 hPa NW 1.1 km/h 8 km/h 78% 0 mm 0 W/m2
06:34 -1.1 °C -4.4 °C 1012.8 hPa NW 0.3 km/h 8 km/h 78% 0 mm 0 W/m2
06:39 -1.1 °C -4.6 °C 1012.8 hPa NW 0.5 km/h 4.8 km/h 77.1% 0 mm 0 W/m2
06:44 -1 °C -4.6 °C 1012.8 hPa NW 0.2 km/h 4.8 km/h 77% 0 mm 0 W/m2
06:49 -1 °C -4.5 °C 1012.8 hPa NW 0.5 km/h 9.7 km/h 77% 0 mm 0 W/m2
06:54 -1 °C -4.6 °C 1012.8 hPa NW 0.6 km/h 9.7 km/h 77% 0 mm 0 W/m2
06:59 -1.1 °C -4.6 °C 1012.8 hPa NW 1.4 km/h 9.7 km/h 77% 0 mm 5 W/m2
07:04 -1.1 °C -4.6 °C 1012.8 hPa Calm   9.7 km/h 77% 0 mm 7 W/m2
07:09 -1.1 °C -4.6 °C 1013.1 hPa Calm   1.6 km/h 77% 0 mm 9 W/m2
07:14 -1.1 °C -4.6 °C 1013.1 hPa NW 0.8 km/h 3.2 km/h 77% 0 mm 11 W/m2
07:19 -1.1 °C -4.6 °C 1013.1 hPa NW 0.5 km/h 3.2 km/h 77% 0 mm 14 W/m2
07:24 -1.1 °C -4.6 °C 1013.1 hPa Calm   3.2 km/h 77% 0 mm 26 W/m2
07:29 -1.1 °C -4.6 °C 1013.1 hPa NW 1.8 km/h 6.4 km/h 77% 0 mm 35 W/m2
07:34 -0.9 °C -4.3 °C 1013.1 hPa NW 0.2 km/h 6.4 km/h 78% 0 mm 44 W/m2
07:39 -0.8 °C -4.2 °C 1013.4 hPa NW 1 km/h 6.4 km/h 77.6% 0 mm 98 W/m2
07:44 -0.6 °C -4.1 °C 1013.4 hPa Calm   6.4 km/h 77% 0 mm 84 W/m2
07:49 -0.2 °C -3.8 °C 1013.4 hPa Calm   6.4 km/h 76.4% 0 mm 47 W/m2
07:54 0.2 °C -3.8 °C 1013.4 hPa NW 0.3 km/h 6.4 km/h 74.6% 0 mm 63 W/m2
07:59 0.4 °C -3.8 °C 1013.4 hPa NW 0.2 km/h 6.4 km/h 73.3% 0 mm 111 W/m2
08:00 0.6 °C -3.7 °C 1013.4 hPa Calm   6.4 km/h 73% 0 mm 111 W/m2
08:09 0.9 °C -3.5 °C 1013.4 hPa NW 0.6 km/h 6.4 km/h 72% 0 mm 200 W/m2
08:14 1.3 °C -3.3 °C 1013.4 hPa NW 1.6 km/h 9.7 km/h 71% 0 mm 232 W/m2
08:19 1.8 °C -3.2 °C 1013.4 hPa NW 3.5 km/h 14.5 km/h 69.5% 0 mm 244 W/m2
08:24 2.3 °C -3.1 °C 1013.4 hPa North 1.9 km/h 14.5 km/h 67.7% 0 mm 253 W/m2
08:29 2.7 °C -2.9 °C 1013.4 hPa North 3.2 km/h 14.5 km/h 66.6% 0 mm 267 W/m2
08:34 3 °C -3.2 °C 1013.4 hPa NW 4.5 km/h 14.5 km/h 63.8% 0 mm 269 W/m2
08:39 3.2 °C -3.2 °C 1013.4 hPa NW 2.9 km/h 14.5 km/h 63% 0 mm 278 W/m2
08:44 3.3 °C -3.2 °C 1013.1 hPa NW 2.4 km/h 14.5 km/h 62.5% 0 mm 294 W/m2
08:49 3.4 °C -3.3 °C 1013.1 hPa NW 6.9 km/h 19.3 km/h 61.2% 0 mm 288 W/m2
08:54 3.3 °C -3.6 °C 1013.1 hPa NW 5.5 km/h 20.9 km/h 60.7% 0 mm 221 W/m2
08:59 3 °C -3.9 °C 1013.1 hPa NW 8.7 km/h 20.9 km/h 60.2% 0 mm 144 W/m2
09:04 2.7 °C -4.2 °C 1013.1 hPa NW 7.7 km/h 22.5 km/h 60.3% 0 mm 232 W/m2
09:09 2.5 °C -4.2 °C 1013.1 hPa NW 8.9 km/h 22.5 km/h 61.3% 0 mm 132 W/m2
09:14 2.3 °C -4.4 °C 1012.8 hPa NW 6.9 km/h 22.5 km/h 61% 0 mm 153 W/m2
09:19 2.3 °C -4.3 °C 1012.8 hPa NW 9 km/h 22.5 km/h 61.7% 0 mm 192 W/m2
09:24 2.3 °C -4.3 °C 1012.8 hPa NW 7.7 km/h 22.5 km/h 61.6% 0 mm 227 W/m2
09:30 2.6 °C -4.2 °C 1012.8 hPa NW 8 km/h 22.5 km/h 61% 0 mm 141 W/m2
10:00 3.3 °C -4.4 °C 1013.1 hPa WNW 6.4 km/h 22.5 km/h 57% 0 mm 175 W/m2
10:30 4.8 °C -5.6 °C 1013.1 hPa NW 9.7 km/h 40.2 km/h 47% 0 mm 434 W/m2
11:00 4.7 °C -6.2 °C 1012.8 hPa NW 12.9 km/h 41.8 km/h 45% 0 mm 309 W/m2
11:30 5 °C -5.9 °C 1012.8 hPa NW 11.3 km/h 33.8 km/h 45% 0 mm 124 W/m2
12:04 5.2 °C -6.3 °C 1012.8 hPa NNW 8.9 km/h 33.8 km/h 43.1% 0 mm 195 W/m2
12:09 5.2 °C -6.4 °C 1012.4 hPa NW 11.1 km/h 27.4 km/h 42.6% 0 mm 318 W/m2
12:14 5.2 °C -6.5 °C 1012.4 hPa NW 11.6 km/h 32.2 km/h 42.5% 0 mm 315 W/m2
12:19 5.2 °C -6.6 °C 1012.4 hPa NW 16.1 km/h 32.2 km/h 42.3% 0 mm 70 W/m2
12:24 5.1 °C -6.9 °C 1012.4 hPa NW 17.9 km/h 37 km/h 41.7% 0 mm 169 W/m2
12:29 4.9 °C -7.1 °C 1012.4 hPa WNW 19.3 km/h 37 km/h 41.5% 0 mm 169 W/m2
12:34 4.8 °C -6.9 °C 1012.4 hPa NW 11.9 km/h 37 km/h 42% 0 mm 158 W/m2
12:39 4.9 °C -6.8 °C 1012.4 hPa NW 13 km/h 29 km/h 42.2% 0 mm 58 W/m2
12:44 5.1 °C -6.8 °C 1012.4 hPa NNW 10.8 km/h 41.8 km/h 41.8% 0 mm 65 W/m2
12:49 5.2 °C -7.3 °C 1012.4 hPa NNW 15.1 km/h 41.8 km/h 40.2% 0 mm 130 W/m2
12:54 5.1 °C -7.4 °C 1012.4 hPa NNW 14.3 km/h 41.8 km/h 40% 0 mm 383 W/m2
12:59 5 °C -7.5 °C 1012.4 hPa NNW 12.9 km/h 41.8 km/h 40% 0 mm 422 W/m2
13:04 4.9 °C -7.7 °C 1012.4 hPa NW 15.9 km/h 41.8 km/h 39.8% 0 mm 316 W/m2
13:09 4.8 °C -7.7 °C 1012.4 hPa NW 14.3 km/h 40.2 km/h 39.9% 0 mm 316 W/m2
13:14 4.8 °C -7.7 °C 1012.4 hPa NW 16.4 km/h 40.2 km/h 39.8% 0 mm 193 W/m2
13:19 4.8 °C -7.7 °C 1012.4 hPa NNW 11.7 km/h 40.2 km/h 39.8% 0 mm 39 W/m2
13:24 4.8 °C -7.7 °C 1012.4 hPa NNW 16.4 km/h 40.2 km/h 39.8% 0 mm 40 W/m2
13:29 4.8 °C -7.8 °C 1012.4 hPa NNW 13 km/h 40.2 km/h 39.5% 0 mm 114 W/m2
13:34 4.8 °C -7.8 °C 1012.4 hPa NW 14.2 km/h 40.2 km/h 39.3% 0 mm 243 W/m2
13:39 4.8 °C -8 °C 1012.4 hPa NNW 17.2 km/h 37 km/h 39% 0 mm 167 W/m2
13:44 4.7 °C -7.8 °C 1012.4 hPa NNW 13.4 km/h 37 km/h 39.7% 0 mm 185 W/m2
13:49 4.8 °C -7.7 °C 1012.4 hPa NW 11.3 km/h 37 km/h 39.9% 0 mm 332 W/m2
13:54 4.9 °C -7.6 °C 1012.8 hPa NW 11.6 km/h 37 km/h 39.9% 0 mm 332 W/m2
13:59 4.9 °C -7.7 °C 1012.8 hPa NW 10.6 km/h 37 km/h 39.4% 0 mm 195 W/m2
14:04 4.9 °C -7.5 °C 1012.8 hPa NW 7.1 km/h 37 km/h 40.2% 0 mm 125 W/m2
14:09 5 °C -7.3 °C 1012.8 hPa NW 7.6 km/h 20.9 km/h 40.7% 0 mm 104 W/m2
14:14 5 °C -7.3 °C 1012.8 hPa NW 7.2 km/h 20.9 km/h 40.8% 0 mm 67 W/m2
14:19 4.9 °C -7.2 °C 1012.8 hPa WNW 5 km/h 20.9 km/h 41.2% 0 mm 40 W/m2
14:24 4.8 °C -7.1 °C 1012.8 hPa NW 11.3 km/h 29 km/h 41.7% 0 mm 95 W/m2
14:29 4.7 °C -7.4 °C 1012.8 hPa WNW 12.6 km/h 32.2 km/h 41.2% 0 mm 104 W/m2
14:34 4.6 °C -7.4 °C 1013.1 hPa WNW 12.9 km/h 32.2 km/h 41.3% 0 mm 30 W/m2
14:39 4.5 °C -7.3 °C 1013.1 hPa NW 6.1 km/h 25.7 km/h 42% 0 mm 28 W/m2
14:44 4.5 °C -7.4 °C 1013.1 hPa NNW 7.2 km/h 30.6 km/h 41.7% 0 mm 28 W/m2
14:49 4.4 °C -7.4 °C 1013.1 hPa NW 9.7 km/h 30.6 km/h 41.7% 0 mm 26 W/m2
14:54 4.4 °C -7.3 °C 1013.1 hPa WNW 5.6 km/h 30.6 km/h 42.3% 0 mm 26 W/m2
14:59 4.3 °C -7.3 °C 1013.4 hPa NNW 6.3 km/h 30.6 km/h 42.7% 0 mm 25 W/m2
15:04 4.3 °C -7.2 °C 1013.4 hPa NW 11.3 km/h 30.6 km/h 43% 0 mm 25 W/m2
15:09 4.3 °C -7.3 °C 1013.4 hPa NW 6.8 km/h 24.1 km/h 42.5% 0 mm 23 W/m2
15:14 4.2 °C -7.3 °C 1013.4 hPa NW 9.3 km/h 30.6 km/h 42.9% 0 mm 23 W/m2
15:19 4.1 °C -7.3 °C 1013.8 hPa NW 10.3 km/h 30.6 km/h 43% 0 mm 21 W/m2
15:24 4.1 °C -7.2 °C 1013.8 hPa NW 11.3 km/h 30.6 km/h 43.7% 0 mm 21 W/m2
15:29 3.9 °C -7.2 °C 1013.8 hPa WNW 10.8 km/h 30.6 km/h 44% 0 mm 19 W/m2
15:34 3.8 °C -7.4 °C 1013.8 hPa WNW 10.9 km/h 30.6 km/h 43.5% 0 mm 18 W/m2
15:39 3.8 °C -7.2 °C 1013.8 hPa NW 6.3 km/h 25.7 km/h 44.4% 0 mm 18 W/m2
15:44 3.7 °C -7.1 °C 1014.1 hPa NW 6.3 km/h 25.7 km/h 45% 0 mm 16 W/m2
15:49 3.6 °C -7.2 °C 1014.1 hPa NW 12.9 km/h 25.7 km/h 45% 0 mm 14 W/m2
15:54 3.5 °C -7.3 °C 1014.1 hPa NW 10.3 km/h 25.7 km/h 45% 0 mm 14 W/m2
15:59 3.4 °C -7.4 °C 1014.4 hPa NW 9.2 km/h 25.7 km/h 45% 0 mm 12 W/m2
16:04 3.3 °C -6.9 °C 1014.4 hPa West 16.1 km/h 16.1 km/h 47% 0 mm 11 W/m2
16:09 3.2 °C -7 °C 1014.4 hPa NW 12.4 km/h 29 km/h 47% 0 mm 11 W/m2
16:14 3.1 °C -7.1 °C 1014.4 hPa NW 9.8 km/h 29 km/h 47% 0 mm 7 W/m2
16:19 3 °C -7.1 °C 1014.8 hPa WNW 13.8 km/h 32.2 km/h 47.3% 0 mm 5 W/m2
16:24 2.9 °C -7.1 °C 1014.8 hPa NW 9.2 km/h 32.2 km/h 47.9% 0 mm 0 W/m2
16:29 2.8 °C -7 °C 1014.8 hPa WNW 6.1 km/h 32.2 km/h 48.4% 0 mm 0 W/m2
16:34 2.7 °C -6.9 °C 1015.1 hPa WNW 7.2 km/h 32.2 km/h 49% 0 mm 0 W/m2
16:39 2.6 °C -7 °C 1015.1 hPa NW 5.8 km/h 22.5 km/h 49.3% 0 mm 0 W/m2
16:44 2.4 °C -6.9 °C 1015.1 hPa WNW 12.1 km/h 24.1 km/h 50% 0 mm 0 W/m2
16:49 2.4 °C -6.9 °C 1015.1 hPa WNW 8.4 km/h 24.1 km/h 50.3% 0 mm 0 W/m2
16:54 2.3 °C -6.8 °C 1015.5 hPa NW 12.7 km/h 27.4 km/h 51% 0 mm 0 W/m2
16:59 2.2 °C -6.9 °C 1015.5 hPa WNW 14.5 km/h 27.4 km/h 51% 0 mm 0 W/m2
17:04 2.2 °C -6.8 °C 1015.5 hPa WNW 7.9 km/h 27.4 km/h 51.3% 0 mm 0 W/m2
17:09 2.1 °C -6.9 °C 1015.5 hPa NW 15 km/h 32.2 km/h 51.3% 0 mm 0 W/m2
17:14 2 °C -6.8 °C 1015.8 hPa NW 8.9 km/h 32.2 km/h 51.9% 0 mm 0 W/m2
17:19 1.9 °C -6.9 °C 1015.8 hPa WNW 9.8 km/h 32.2 km/h 52% 0 mm 0 W/m2
17:24 1.9 °C -6.8 °C 1016.1 hPa WNW 7.7 km/h 32.2 km/h 52.3% 0 mm 0 W/m2
17:29 1.8 °C -6.8 °C 1016.1 hPa WNW 6.4 km/h 32.2 km/h 53% 0 mm 0 W/m2
17:34 1.7 °C -6.8 °C 1016.1 hPa NW 13.5 km/h 38.6 km/h 53% 0 mm 0 W/m2
17:39 1.7 °C -6.8 °C 1016.1 hPa WNW 8 km/h 38.6 km/h 53% 0 mm 0 W/m2
17:44 1.6 °C -6.9 °C 1016.1 hPa NW 12.9 km/h 38.6 km/h 53% 0 mm 0 W/m2
17:49 1.6 °C -6.8 °C 1016.1 hPa NW 9 km/h 38.6 km/h 53.5% 0 mm 0 W/m2
17:54 1.6 °C -6.8 °C 1016.1 hPa NW 12.7 km/h 38.6 km/h 54% 0 mm 0 W/m2
17:59 1.5 °C -6.8 °C 1016.1 hPa NW 12.7 km/h 38.6 km/h 54% 0 mm 0 W/m2
18:04 1.4 °C -6.8 °C 1016.1 hPa NW 6.3 km/h 38.6 km/h 54% 0 mm 0 W/m2
18:09 1.4 °C -6.8 °C 1016.1 hPa NW 9.3 km/h 22.5 km/h 54.6% 0 mm 0 W/m2
18:14 1.3 °C -6.7 °C 1016.1 hPa NW 7.6 km/h 22.5 km/h 55% 0 mm 0 W/m2
18:19 1.2 °C -6.8 °C 1016.1 hPa NW 7.4 km/h 22.5 km/h 55% 0 mm 0 W/m2
18:24 1.2 °C -6.7 °C 1016.1 hPa NW 8.2 km/h 22.5 km/h 55.8% 0 mm 0 W/m2
18:29 1.1 °C -6.7 °C 1016.5 hPa WNW 4.3 km/h 22.5 km/h 56% 0 mm 0 W/m2
18:34 1.1 °C -6.7 °C 1016.5 hPa WNW 8.9 km/h 22.5 km/h 56% 0 mm 0 W/m2
18:39 1 °C -6.7 °C 1016.5 hPa WNW 10.3 km/h 25.7 km/h 56.3% 0 mm 0 W/m2
18:44 0.9 °C -6.8 °C 1016.5 hPa WNW 12.2 km/h 25.7 km/h 56.1% 0 mm 0 W/m2
18:49 0.9 °C -6.8 °C 1016.5 hPa WNW 8.5 km/h 25.7 km/h 56% 0 mm 0 W/m2
18:54 0.9 °C -6.8 °C 1016.5 hPa WNW 9.3 km/h 25.7 km/h 56.3% 0 mm 0 W/m2
18:59 0.8 °C -6.8 °C 1016.8 hPa WNW 6.9 km/h 25.7 km/h 56.7% 0 mm 0 W/m2
19:04 0.8 °C -6.8 °C 1016.8 hPa WNW 7.9 km/h 25.7 km/h 57% 0 mm 0 W/m2
19:09 0.7 °C -6.8 °C 1016.8 hPa WNW 7.9 km/h 19.3 km/h 57% 0 mm 0 W/m2
19:14 0.7 °C -6.7 °C 1016.8 hPa WNW 6 km/h 19.3 km/h 57.7% 0 mm 0 W/m2
19:19 0.7 °C -6.9 °C 1017.2 hPa NW 2.6 km/h 19.3 km/h 57% 0 mm 0 W/m2
19:24 0.6 °C -6.9 °C 1017.2 hPa NW 3.5 km/h 19.3 km/h 57% 0 mm 0 W/m2
19:29 0.5 °C -7.1 °C 1017.2 hPa NW 3.1 km/h 19.3 km/h 57% 0 mm 0 W/m2
19:34 0.4 °C -7.1 °C 1017.2 hPa WNW 3.4 km/h 19.3 km/h 57.3% 0 mm 0 W/m2
19:39 0.3 °C -6.9 °C 1017.5 hPa NW 6.9 km/h 16.1 km/h 58% 0 mm 0 W/m2
19:44 0.3 °C -7 °C 1017.5 hPa NW 4.8 km/h 17.7 km/h 58% 0 mm 0 W/m2
19:49 0.3 °C -7.1 °C 1017.5 hPa NW 2.6 km/h 17.7 km/h 57.9% 0 mm 0 W/m2
19:54 0.3 °C -7.1 °C 1017.5 hPa NW 1.3 km/h 17.7 km/h 57.8% 0 mm 0 W/m2
19:59 0.2 °C -7.1 °C 1017.5 hPa NW 6 km/h 19.3 km/h 58% 0 mm 0 W/m2
20:00 0.2 °C -7.1 °C 1017.5 hPa West 4.8 km/h 19.3 km/h 58% 0 mm 0 W/m2
20:09 0.2 °C -6.9 °C 1017.8 hPa NW 6.4 km/h 22.5 km/h 58.8% 0 mm 0 W/m2
20:14 0.2 °C -7.1 °C 1017.8 hPa NW 6.3 km/h 22.5 km/h 58% 0 mm 0 W/m2
20:19 0.3 °C -6.9 °C 1017.8 hPa NW 5.3 km/h 24.1 km/h 58.5% 0 mm 0 W/m2
20:24 0.3 °C -6.8 °C 1017.8 hPa NW 7.9 km/h 24.1 km/h 58.8% 0 mm 0 W/m2
20:29 0.2 °C -6.9 °C 1017.8 hPa NW 5.8 km/h 24.1 km/h 58.5% 0 mm 0 W/m2
20:34 0.2 °C -6.7 °C 1017.8 hPa NW 2.7 km/h 24.1 km/h 59.4% 0 mm 0 W/m2
20:39 0.2 °C -6.6 °C 1017.8 hPa NW 2.7 km/h 14.5 km/h 60% 0 mm 0 W/m2
20:44 0.2 °C -6.7 °C 1017.8 hPa NNW 1.9 km/h 14.5 km/h 60% 0 mm 0 W/m2
20:49 0.2 °C -6.8 °C 1017.8 hPa NW 2.1 km/h 14.5 km/h 59.4% 0 mm 0 W/m2
20:53 0.1 °C -6.7 °C 1017.8 hPa NW 5.6 km/h 14.5 km/h 60% 0 mm 0 W/m2
20:59 0.1 °C -7 °C 1017.8 hPa Calm   14.5 km/h 59% 0 mm 0 W/m2
21:04 0 °C -6.9 °C 1018.2 hPa NNW 2.9 km/h 14.5 km/h 59.6% 0 mm 0 W/m2
21:09 -0.1 °C -6.9 °C 1018.2 hPa North 2.1 km/h 11.3 km/h 60% 0 mm 0 W/m2
21:14 -0.2 °C -6.9 °C 1018.2 hPa NW 3.5 km/h 16.1 km/h 60.5% 0 mm 0 W/m2
21:19 -0.3 °C -6.9 °C 1018.2 hPa NW 4 km/h 16.1 km/h 61% 0 mm 0 W/m2
21:24 -0.4 °C -6.9 °C 1018.2 hPa WNW 5.3 km/h 16.1 km/h 61.1% 0 mm 0 W/m2
21:29 -0.4 °C -6.8 °C 1018.2 hPa WNW 5.3 km/h 16.1 km/h 62% 0 mm 0 W/m2
21:34 -0.4 °C -6.8 °C 1018.5 hPa WNW 8.2 km/h 22.5 km/h 62% 0 mm 0 W/m2
21:39 -0.4 °C -6.7 °C 1018.5 hPa NW 6.6 km/h 22.5 km/h 62.7% 0 mm 0 W/m2
21:44 -0.4 °C -6.6 °C 1018.5 hPa NW 9.8 km/h 22.5 km/h 63% 0 mm 0 W/m2
21:49 -0.4 °C -6.6 °C 1018.5 hPa NW 9.3 km/h 29 km/h 63% 0 mm 0 W/m2
21:54 -0.4 °C -6.6 °C 1018.5 hPa NW 11.4 km/h 29 km/h 63% 0 mm 0 W/m2
21:59 -0.4 °C -6.6 °C 1018.5 hPa NW 8.7 km/h 29 km/h 63% 0 mm 0 W/m2
22:04 -0.4 °C -6.6 °C 1018.5 hPa NW 7.1 km/h 30.6 km/h 63% 0 mm 0 W/m2
22:09 -0.4 °C -6.4 °C 1018.8 hPa NW 6 km/h 30.6 km/h 63.9% 0 mm 0 W/m2
22:14 -0.5 °C -6.4 °C 1018.8 hPa NW 7.7 km/h 30.6 km/h 64% 0 mm 0 W/m2
22:19 -0.5 °C -6.4 °C 1018.8 hPa NW 0.8 km/h 30.6 km/h 64% 0 mm 0 W/m2
22:24 -0.6 °C -6.5 °C 1018.8 hPa NW 3.4 km/h 30.6 km/h 64% 0 mm 0 W/m2
22:29 -0.6 °C -6.6 °C 1018.8 hPa NW 0.3 km/h 30.6 km/h 64% 0 mm 0 W/m2
22:34 -0.6 °C -6.6 °C 1018.8 hPa NNW 5.3 km/h 30.6 km/h 64% 0 mm 0 W/m2
22:39 -0.7 °C -6.6 °C 1018.8 hPa NW 4.8 km/h 20.9 km/h 64% 0 mm 0 W/m2
22:44 -0.7 °C -6.6 °C 1019.2 hPa NW 4.2 km/h 20.9 km/h 64.4% 0 mm 0 W/m2
22:49 -0.7 °C -6.6 °C 1018.8 hPa NW 3.7 km/h 20.9 km/h 64.5% 0 mm 0 W/m2
22:54 -0.8 °C -6.7 °C 1019.2 hPa NW 1.6 km/h 20.9 km/h 64% 0 mm 0 W/m2
22:59 -0.8 °C -6.8 °C 1019.2 hPa NW 1.8 km/h 20.9 km/h 64% 0 mm 0 W/m2
23:00 -0.9 °C -6.8 °C 1019.2 hPa NW 3.2 km/h 20.9 km/h 64% 0 mm 0 W/m2
23:09 -0.9 °C -6.8 °C 1019.2 hPa NW 2.6 km/h 8 km/h 64.3% 0 mm 0 W/m2
23:14 -1 °C -6.7 °C 1019.2 hPa NW 2.1 km/h 9.7 km/h 65% 0 mm 0 W/m2
23:19 -1.1 °C -6.8 °C 1019.2 hPa NW 5.5 km/h 11.3 km/h 65% 0 mm 0 W/m2
23:24 -1.1 °C -6.8 °C 1019.2 hPa NW 2.6 km/h 11.3 km/h 64.8% 0 mm 0 W/m2
23:29 -1.1 °C -6.8 °C 1019.2 hPa NW 1.9 km/h 11.3 km/h 65% 0 mm 0 W/m2
23:34 -1.2 °C -6.9 °C 1019.2 hPa NW 5.3 km/h 11.3 km/h 65% 0 mm 0 W/m2
23:39 -1.2 °C -6.9 °C 1019.2 hPa NW 4.3 km/h 12.9 km/h 64.9% 0 mm 0 W/m2
23:44 -1.2 °C -7 °C 1019.2 hPa NW 6.6 km/h 20.9 km/h 64.4% 0 mm 0 W/m2
23:49 -1.2 °C -6.9 °C 1019.2 hPa NW 3.4 km/h 20.9 km/h 65% 0 mm 0 W/m2
23:54 -1.2 °C -6.9 °C 1019.2 hPa NW 3.4 km/h 20.9 km/h 64.7% 0 mm 0 W/m2
23:59 -1.2 °C -6.9 °C 1019.2 hPa NW 3.2 km/h 20.9 km/h 65% 0 mm 0 W/m2
Hartford County Weather
Compliments of Weather Underground - 4 mb